Easley, Missouri
Current Conditions -  °F | °C
As of 2:54 PM on Saturday 25 Oct 2014 (Local Time) from KCOU Reporting Station
Clear Clear  
Wind Chill: 80°   Ceiling: Unl
Heat Index: 81°   Visibility: 10mi
Dew Point: 58°   Wind: 3mph
Humidity: 47%   Direction: NA
Pressure: 30.03"   Gusts: NA
Location:  38.895°N, 92.3958°W
Report Text: KCOU 251954Z VRB03KT 10SM CLR 27/14 A3003 RMK AO2 SLP162 T02670144 $
Loading
Personal Weather Stations






























Interactive Weather Map
Tropical Storm Tracking
New forecast layout! Learn more

10-Day Weather Forecast

Advertisements
Track Severe Weather on mobile